sensor_id;sensor_type;location;lat;lon;timestamp;P1;durP1;ratioP1;P2;durP2;ratioP2
54307;SDS011;40208;39.778;2.710;2024-03-06T00:00:26;13.02;;;6.78;;
54307;SDS011;40208;39.778;2.710;2024-03-06T00:03:11;9.73;;;5.90;;
54307;SDS011;40208;39.778;2.710;2024-03-06T00:05:55;7.32;;;4.80;;
54307;SDS011;40208;39.778;2.710;2024-03-06T00:08:40;10.00;;;5.68;;
54307;SDS011;40208;39.778;2.710;2024-03-06T00:11:25;8.68;;;5.72;;
54307;SDS011;40208;39.778;2.710;2024-03-06T00:14:10;8.30;;;4.43;;
54307;SDS011;40208;39.778;2.710;2024-03-06T00:16:56;6.78;;;3.83;;
54307;SDS011;40208;39.778;2.710;2024-03-06T00:19:42;9.65;;;4.13;;
54307;SDS011;40208;39.778;2.710;2024-03-06T00:22:27;10.32;;;4.75;;
54307;SDS011;40208;39.778;2.710;2024-03-06T00:25:12;9.63;;;5.88;;
54307;SDS011;40208;39.778;2.710;2024-03-06T00:27:56;10.73;;;5.45;;
54307;SDS011;40208;39.778;2.710;2024-03-06T00:30:41;8.88;;;5.45;;
54307;SDS011;40208;39.778;2.710;2024-03-06T00:33:26;15.57;;;6.05;;
54307;SDS011;40208;39.778;2.710;2024-03-06T00:36:11;14.20;;;7.10;;
54307;SDS011;40208;39.778;2.710;2024-03-06T00:38:56;15.60;;;9.20;;
54307;SDS011;40208;39.778;2.710;2024-03-06T00:41:41;19.48;;;10.73;;
54307;SDS011;40208;39.778;2.710;2024-03-06T00:44:28;16.75;;;10.77;;
54307;SDS011;40208;39.778;2.710;2024-03-06T00:47:13;15.95;;;9.80;;
54307;SDS011;40208;39.778;2.710;2024-03-06T00:49:58;19.15;;;9.30;;
54307;SDS011;40208;39.778;2.710;2024-03-06T00:52:43;12.32;;;8.55;;
54307;SDS011;40208;39.778;2.710;2024-03-06T00:55:28;11.27;;;7.65;;
54307;SDS011;40208;39.778;2.710;2024-03-06T00:58:13;13.65;;;7.60;;
54307;SDS011;40208;39.778;2.710;2024-03-06T01:00:58;14.63;;;8.13;;
54307;SDS011;40208;39.778;2.710;2024-03-06T01:03:43;11.45;;;6.22;;
54307;SDS011;40208;39.778;2.710;2024-03-06T01:06:28;12.88;;;5.70;;
54307;SDS011;40208;39.778;2.710;2024-03-06T01:09:13;11.90;;;5.60;;
54307;SDS011;40208;39.778;2.710;2024-03-06T01:11:57;12.40;;;6.68;;
54307;SDS011;40208;39.778;2.710;2024-03-06T01:14:42;13.20;;;7.63;;
54307;SDS011;40208;39.778;2.710;2024-03-06T01:17:27;16.65;;;8.27;;
54307;SDS011;40208;39.778;2.710;2024-03-06T01:20:12;13.00;;;7.70;;
54307;SDS011;40208;39.778;2.710;2024-03-06T01:22:57;18.27;;;7.40;;
54307;SDS011;40208;39.778;2.710;2024-03-06T01:25:42;16.70;;;8.27;;
54307;SDS011;40208;39.778;2.710;2024-03-06T01:28:27;11.70;;;6.75;;
54307;SDS011;40208;39.778;2.710;2024-03-06T01:31:12;10.90;;;6.45;;
54307;SDS011;40208;39.778;2.710;2024-03-06T01:33:57;4.85;;;3.40;;
54307;SDS011;40208;39.778;2.710;2024-03-06T01:36:42;6.22;;;3.70;;
54307;SDS011;40208;39.778;2.710;2024-03-06T01:39:26;6.90;;;3.72;;
54307;SDS011;40208;39.778;2.710;2024-03-06T01:42:11;9.27;;;4.07;;
54307;SDS011;40208;39.778;2.710;2024-03-06T01:44:56;6.88;;;3.42;;
54307;SDS011;40208;39.778;2.710;2024-03-06T01:47:41;12.65;;;3.55;;
54307;SDS011;40208;39.778;2.710;2024-03-06T01:50:26;7.57;;;3.42;;
54307;SDS011;40208;39.778;2.710;2024-03-06T01:53:10;8.73;;;3.70;;
54307;SDS011;40208;39.778;2.710;2024-03-06T01:55:57;9.20;;;5.25;;
54307;SDS011;40208;39.778;2.710;2024-03-06T01:58:42;6.72;;;4.00;;
54307;SDS011;40208;39.778;2.710;2024-03-06T02:01:27;8.65;;;3.88;;
54307;SDS011;40208;39.778;2.710;2024-03-06T02:04:12;9.77;;;4.22;;
54307;SDS011;40208;39.778;2.710;2024-03-06T02:06:57;9.75;;;4.03;;
54307;SDS011;40208;39.778;2.710;2024-03-06T02:09:42;7.60;;;3.22;;
54307;SDS011;40208;39.778;2.710;2024-03-06T02:12:27;9.25;;;4.18;;
54307;SDS011;40208;39.778;2.710;2024-03-06T02:15:12;4.40;;;2.67;;
54307;SDS011;40208;39.778;2.710;2024-03-06T02:17:57;7.60;;;2.63;;
54307;SDS011;40208;39.778;2.710;2024-03-06T02:20:42;7.63;;;3.20;;
54307;SDS011;40208;39.778;2.710;2024-03-06T02:23:27;6.55;;;2.88;;
54307;SDS011;40208;39.778;2.710;2024-03-06T02:26:11;6.00;;;3.28;;
54307;SDS011;40208;39.778;2.710;2024-03-06T02:28:56;7.50;;;2.63;;
54307;SDS011;40208;39.778;2.710;2024-03-06T02:31:41;7.57;;;3.63;;
54307;SDS011;40208;39.778;2.710;2024-03-06T02:34:26;6.45;;;3.80;;
54307;SDS011;40208;39.778;2.710;2024-03-06T02:37:11;5.85;;;3.50;;
54307;SDS011;40208;39.778;2.710;2024-03-06T02:39:56;7.30;;;2.80;;
54307;SDS011;40208;39.778;2.710;2024-03-06T02:42:40;8.10;;;2.70;;
54307;SDS011;40208;39.778;2.710;2024-03-06T02:45:25;6.60;;;2.70;;
54307;SDS011;40208;39.778;2.710;2024-03-06T02:48:10;8.15;;;3.42;;
54307;SDS011;40208;39.778;2.710;2024-03-06T02:50:55;6.50;;;3.13;;
54307;SDS011;40208;39.778;2.710;2024-03-06T02:53:40;7.03;;;3.53;;
54307;SDS011;40208;39.778;2.710;2024-03-06T02:56:25;10.52;;;3.85;;
54307;SDS011;40208;39.778;2.710;2024-03-06T02:59:10;5.80;;;2.65;;
54307;SDS011;40208;39.778;2.710;2024-03-06T03:01:54;3.63;;;1.95;;
54307;SDS011;40208;39.778;2.710;2024-03-06T03:04:39;9.82;;;2.60;;
54307;SDS011;40208;39.778;2.710;2024-03-06T03:07:24;4.63;;;2.45;;
54307;SDS011;40208;39.778;2.710;2024-03-06T03:10:09;4.60;;;2.22;;
54307;SDS011;40208;39.778;2.710;2024-03-06T03:12:55;4.25;;;2.72;;
54307;SDS011;40208;39.778;2.710;2024-03-06T03:15:40;3.83;;;1.90;;
54307;SDS011;40208;39.778;2.710;2024-03-06T03:18:26;3.10;;;1.65;;
54307;SDS011;40208;39.778;2.710;2024-03-06T03:21:11;3.13;;;1.45;;
54307;SDS011;40208;39.778;2.710;2024-03-06T03:23:57;5.45;;;2.50;;
54307;SDS011;40208;39.778;2.710;2024-03-06T03:26:42;7.00;;;4.15;;
54307;SDS011;40208;39.778;2.710;2024-03-06T03:29:27;8.02;;;5.03;;
54307;SDS011;40208;39.778;2.710;2024-03-06T03:32:12;11.98;;;5.32;;
54307;SDS011;40208;39.778;2.710;2024-03-06T03:34:57;9.05;;;5.30;;
54307;SDS011;40208;39.778;2.710;2024-03-06T03:37:42;11.82;;;5.28;;
54307;SDS011;40208;39.778;2.710;2024-03-06T03:40:28;11.20;;;4.93;;
54307;SDS011;40208;39.778;2.710;2024-03-06T03:43:13;9.45;;;5.22;;
54307;SDS011;40208;39.778;2.710;2024-03-06T03:45:57;9.57;;;4.78;;
54307;SDS011;40208;39.778;2.710;2024-03-06T03:48:43;9.30;;;3.75;;
54307;SDS011;40208;39.778;2.710;2024-03-06T03:51:27;4.10;;;2.50;;
54307;SDS011;40208;39.778;2.710;2024-03-06T03:54:12;5.38;;;2.20;;
54307;SDS011;40208;39.778;2.710;2024-03-06T03:56:58;5.70;;;3.13;;
54307;SDS011;40208;39.778;2.710;2024-03-06T03:59:43;9.93;;;2.70;;
54307;SDS011;40208;39.778;2.710;2024-03-06T04:02:28;7.13;;;2.50;;
54307;SDS011;40208;39.778;2.710;2024-03-06T04:05:13;6.50;;;2.58;;
54307;SDS011;40208;39.778;2.710;2024-03-06T04:07:58;6.68;;;2.53;;
54307;SDS011;40208;39.778;2.710;2024-03-06T04:10:43;8.50;;;3.63;;
54307;SDS011;40208;39.778;2.710;2024-03-06T04:13:31;5.75;;;3.50;;
54307;SDS011;40208;39.778;2.710;2024-03-06T04:16:20;5.97;;;3.80;;
54307;SDS011;40208;39.778;2.710;2024-03-06T04:19:05;8.60;;;4.55;;
54307;SDS011;40208;39.778;2.710;2024-03-06T04:21:50;8.30;;;5.13;;
54307;SDS011;40208;39.778;2.710;2024-03-06T04:24:34;12.23;;;5.13;;
54307;SDS011;40208;39.778;2.710;2024-03-06T04:27:19;12.75;;;5.18;;
54307;SDS011;40208;39.778;2.710;2024-03-06T04:30:04;9.88;;;4.60;;
54307;SDS011;40208;39.778;2.710;2024-03-06T04:32:50;8.95;;;3.40;;
54307;SDS011;40208;39.778;2.710;2024-03-06T04:35:35;8.13;;;3.47;;
54307;SDS011;40208;39.778;2.710;2024-03-06T04:38:21;11.43;;;4.00;;
54307;SDS011;40208;39.778;2.710;2024-03-06T04:41:05;8.75;;;3.92;;
54307;SDS011;40208;39.778;2.710;2024-03-06T04:43:51;11.60;;;3.90;;
54307;SDS011;40208;39.778;2.710;2024-03-06T04:46:36;7.55;;;4.10;;
54307;SDS011;40208;39.778;2.710;2024-03-06T04:49:21;8.57;;;4.95;;
54307;SDS011;40208;39.778;2.710;2024-03-06T04:52:06;9.32;;;3.78;;
54307;SDS011;40208;39.778;2.710;2024-03-06T04:54:52;6.78;;;3.80;;
54307;SDS011;40208;39.778;2.710;2024-03-06T04:57:37;6.63;;;3.78;;
54307;SDS011;40208;39.778;2.710;2024-03-06T05:00:22;5.38;;;3.25;;
54307;SDS011;40208;39.778;2.710;2024-03-06T05:03:07;6.55;;;3.47;;
54307;SDS011;40208;39.778;2.710;2024-03-06T05:05:52;6.82;;;3.33;;
54307;SDS011;40208;39.778;2.710;2024-03-06T05:08:37;9.80;;;3.47;;
54307;SDS011;40208;39.778;2.710;2024-03-06T05:11:22;7.60;;;3.53;;
54307;SDS011;40208;39.778;2.710;2024-03-06T05:14:07;6.65;;;3.25;;
54307;SDS011;40208;39.778;2.710;2024-03-06T05:16:51;5.30;;;3.20;;
54307;SDS011;40208;39.778;2.710;2024-03-06T05:19:37;7.07;;;3.53;;
54307;SDS011;40208;39.778;2.710;2024-03-06T05:22:22;8.98;;;3.63;;
54307;SDS011;40208;39.778;2.710;2024-03-06T05:25:07;4.55;;;2.63;;
54307;SDS011;40208;39.778;2.710;2024-03-06T05:27:52;4.22;;;2.70;;
54307;SDS011;40208;39.778;2.710;2024-03-06T05:30:37;7.50;;;3.33;;
54307;SDS011;40208;39.778;2.710;2024-03-06T05:33:22;5.25;;;2.95;;
54307;SDS011;40208;39.778;2.710;2024-03-06T05:36:07;4.53;;;2.47;;
54307;SDS011;40208;39.778;2.710;2024-03-06T05:38:52;4.50;;;2.17;;
54307;SDS011;40208;39.778;2.710;2024-03-06T05:41:37;4.38;;;1.90;;
54307;SDS011;40208;39.778;2.710;2024-03-06T05:44:22;4.28;;;1.95;;
54307;SDS011;40208;39.778;2.710;2024-03-06T05:47:07;6.03;;;2.50;;
54307;SDS011;40208;39.778;2.710;2024-03-06T05:49:52;5.00;;;1.50;;
54307;SDS011;40208;39.778;2.710;2024-03-06T05:52:36;4.47;;;1.70;;
54307;SDS011;40208;39.778;2.710;2024-03-06T05:55:21;4.80;;;1.70;;
54307;SDS011;40208;39.778;2.710;2024-03-06T05:58:06;6.30;;;1.85;;
54307;SDS011;40208;39.778;2.710;2024-03-06T06:00:51;5.55;;;1.58;;
54307;SDS011;40208;39.778;2.710;2024-03-06T06:03:36;3.40;;;1.73;;
54307;SDS011;40208;39.778;2.710;2024-03-06T06:06:22;3.95;;;1.63;;
54307;SDS011;40208;39.778;2.710;2024-03-06T06:09:07;6.57;;;2.08;;
54307;SDS011;40208;39.778;2.710;2024-03-06T06:11:59;3.33;;;1.60;;
54307;SDS011;40208;39.778;2.710;2024-03-06T06:14:44;4.90;;;1.95;;
54307;SDS011;40208;39.778;2.710;2024-03-06T06:17:29;12.10;;;2.42;;
54307;SDS011;40208;39.778;2.710;2024-03-06T06:20:14;13.75;;;1.70;;
54307;SDS011;40208;39.778;2.710;2024-03-06T06:23:00;4.20;;;1.73;;
54307;SDS011;40208;39.778;2.710;2024-03-06T06:25:45;7.80;;;2.13;;
54307;SDS011;40208;39.778;2.710;2024-03-06T06:28:30;8.82;;;1.90;;
54307;SDS011;40208;39.778;2.710;2024-03-06T06:31:15;7.78;;;1.88;;
54307;SDS011;40208;39.778;2.710;2024-03-06T06:34:00;6.45;;;1.60;;
54307;SDS011;40208;39.778;2.710;2024-03-06T06:36:45;7.95;;;2.10;;
54307;SDS011;40208;39.778;2.710;2024-03-06T06:39:30;7.15;;;2.28;;
54307;SDS011;40208;39.778;2.710;2024-03-06T06:42:18;5.70;;;2.05;;
54307;SDS011;40208;39.778;2.710;2024-03-06T06:45:03;6.20;;;1.92;;
54307;SDS011;40208;39.778;2.710;2024-03-06T06:47:51;3.38;;;1.60;;
54307;SDS011;40208;39.778;2.710;2024-03-06T06:50:36;3.75;;;1.73;;
54307;SDS011;40208;39.778;2.710;2024-03-06T06:53:21;3.78;;;2.15;;
54307;SDS011;40208;39.778;2.710;2024-03-06T06:56:05;4.85;;;1.95;;
54307;SDS011;40208;39.778;2.710;2024-03-06T06:58:50;4.38;;;2.10;;
54307;SDS011;40208;39.778;2.710;2024-03-06T07:01:35;7.70;;;2.92;;
54307;SDS011;40208;39.778;2.710;2024-03-06T07:04:20;9.43;;;2.90;;
54307;SDS011;40208;39.778;2.710;2024-03-06T07:07:05;7.28;;;2.80;;
54307;SDS011;40208;39.778;2.710;2024-03-06T07:09:50;10.88;;;2.35;;
54307;SDS011;40208;39.778;2.710;2024-03-06T07:12:35;5.20;;;2.47;;
54307;SDS011;40208;39.778;2.710;2024-03-06T07:15:20;7.00;;;2.80;;
54307;SDS011;40208;39.778;2.710;2024-03-06T07:18:05;6.53;;;3.25;;
54307;SDS011;40208;39.778;2.710;2024-03-06T07:20:50;6.53;;;3.40;;
54307;SDS011;40208;39.778;2.710;2024-03-06T07:23:35;9.35;;;3.33;;
54307;SDS011;40208;39.778;2.710;2024-03-06T07:26:19;8.07;;;3.92;;
54307;SDS011;40208;39.778;2.710;2024-03-06T07:29:04;8.90;;;4.75;;
54307;SDS011;40208;39.778;2.710;2024-03-06T07:31:57;9.15;;;4.03;;
54307;SDS011;40208;39.778;2.710;2024-03-06T07:34:42;9.73;;;4.50;;
54307;SDS011;40208;39.778;2.710;2024-03-06T07:37:26;12.82;;;7.18;;
54307;SDS011;40208;39.778;2.710;2024-03-06T07:40:11;22.48;;;11.20;;
54307;SDS011;40208;39.778;2.710;2024-03-06T07:42:56;16.45;;;10.60;;
54307;SDS011;40208;39.778;2.710;2024-03-06T07:45:41;22.70;;;9.18;;
54307;SDS011;40208;39.778;2.710;2024-03-06T07:48:26;19.38;;;8.68;;
54307;SDS011;40208;39.778;2.710;2024-03-06T07:51:11;11.10;;;6.40;;
54307;SDS011;40208;39.778;2.710;2024-03-06T07:53:55;12.30;;;5.78;;
54307;SDS011;40208;39.778;2.710;2024-03-06T07:56:41;17.85;;;6.18;;
54307;SDS011;40208;39.778;2.710;2024-03-06T07:59:26;11.00;;;4.82;;
54307;SDS011;40208;39.778;2.710;2024-03-06T08:02:11;10.45;;;5.50;;
54307;SDS011;40208;39.778;2.710;2024-03-06T08:04:56;9.63;;;5.60;;
54307;SDS011;40208;39.778;2.710;2024-03-06T08:07:40;16.42;;;9.10;;
54307;SDS011;40208;39.778;2.710;2024-03-06T08:10:26;14.10;;;7.07;;
54307;SDS011;40208;39.778;2.710;2024-03-06T08:13:11;13.27;;;6.50;;
54307;SDS011;40208;39.778;2.710;2024-03-06T08:15:56;12.30;;;6.00;;
54307;SDS011;40208;39.778;2.710;2024-03-06T08:18:41;11.98;;;6.57;;
54307;SDS011;40208;39.778;2.710;2024-03-06T08:21:25;14.23;;;6.03;;
54307;SDS011;40208;39.778;2.710;2024-03-06T08:24:11;11.02;;;5.60;;
54307;SDS011;40208;39.778;2.710;2024-03-06T08:26:55;13.73;;;5.57;;
54307;SDS011;40208;39.778;2.710;2024-03-06T08:29:41;15.65;;;6.15;;
54307;SDS011;40208;39.778;2.710;2024-03-06T08:32:26;17.30;;;6.07;;
54307;SDS011;40208;39.778;2.710;2024-03-06T08:35:12;12.07;;;7.18;;
54307;SDS011;40208;39.778;2.710;2024-03-06T08:37:57;27.30;;;9.63;;
54307;SDS011;40208;39.778;2.710;2024-03-06T08:40:42;28.27;;;11.45;;
54307;SDS011;40208;39.778;2.710;2024-03-06T08:43:30;35.65;;;14.40;;
54307;SDS011;40208;39.778;2.710;2024-03-06T08:46:14;45.95;;;22.17;;
54307;SDS011;40208;39.778;2.710;2024-03-06T08:48:59;45.13;;;22.75;;
54307;SDS011;40208;39.778;2.710;2024-03-06T08:51:45;39.38;;;19.92;;
54307;SDS011;40208;39.778;2.710;2024-03-06T08:54:30;42.40;;;18.35;;
54307;SDS011;40208;39.778;2.710;2024-03-06T08:57:15;39.22;;;18.08;;
54307;SDS011;40208;39.778;2.710;2024-03-06T09:00:01;38.33;;;14.57;;
54307;SDS011;40208;39.778;2.710;2024-03-06T09:02:47;36.92;;;17.23;;
54307;SDS011;40208;39.778;2.710;2024-03-06T09:05:32;39.15;;;16.30;;
54307;SDS011;40208;39.778;2.710;2024-03-06T09:08:16;36.45;;;16.02;;
54307;SDS011;40208;39.778;2.710;2024-03-06T09:11:02;35.05;;;15.90;;
54307;SDS011;40208;39.778;2.710;2024-03-06T09:13:46;31.00;;;13.25;;
54307;SDS011;40208;39.778;2.710;2024-03-06T09:16:31;34.15;;;13.50;;
54307;SDS011;40208;39.778;2.710;2024-03-06T09:19:16;28.23;;;11.40;;
54307;SDS011;40208;39.778;2.710;2024-03-06T09:22:01;31.55;;;12.43;;
54307;SDS011;40208;39.778;2.710;2024-03-06T09:24:48;29.20;;;12.98;;
54307;SDS011;40208;39.778;2.710;2024-03-06T09:27:33;36.03;;;16.85;;
54307;SDS011;40208;39.778;2.710;2024-03-06T09:30:17;40.97;;;16.08;;
54307;SDS011;40208;39.778;2.710;2024-03-06T09:33:02;39.05;;;13.73;;
54307;SDS011;40208;39.778;2.710;2024-03-06T09:35:47;34.35;;;10.80;;
54307;SDS011;40208;39.778;2.710;2024-03-06T09:38:32;36.40;;;13.52;;
54307;SDS011;40208;39.778;2.710;2024-03-06T09:41:17;29.05;;;10.88;;
54307;SDS011;40208;39.778;2.710;2024-03-06T09:44:01;31.38;;;10.23;;
54307;SDS011;40208;39.778;2.710;2024-03-06T09:46:48;34.08;;;10.27;;
54307;SDS011;40208;39.778;2.710;2024-03-06T09:49:34;29.95;;;9.77;;
54307;SDS011;40208;39.778;2.710;2024-03-06T09:52:19;27.08;;;9.60;;
54307;SDS011;40208;39.778;2.710;2024-03-06T09:55:04;30.65;;;9.13;;
54307;SDS011;40208;39.778;2.710;2024-03-06T09:57:49;20.45;;;6.00;;
54307;SDS011;40208;39.778;2.710;2024-03-06T10:00:34;15.82;;;5.10;;
54307;SDS011;40208;39.778;2.710;2024-03-06T10:03:19;20.30;;;6.35;;
54307;SDS011;40208;39.778;2.710;2024-03-06T10:06:04;20.38;;;6.85;;
54307;SDS011;40208;39.778;2.710;2024-03-06T10:08:50;22.75;;;8.40;;
54307;SDS011;40208;39.778;2.710;2024-03-06T10:11:39;22.70;;;7.88;;
54307;SDS011;40208;39.778;2.710;2024-03-06T10:14:24;18.33;;;7.47;;
54307;SDS011;40208;39.778;2.710;2024-03-06T10:17:09;10.52;;;4.57;;
54307;SDS011;40208;39.778;2.710;2024-03-06T10:19:54;16.13;;;5.07;;
54307;SDS011;40208;39.778;2.710;2024-03-06T10:22:39;17.65;;;4.00;;
54307;SDS011;40208;39.778;2.710;2024-03-06T10:25:24;17.20;;;5.75;;
54307;SDS011;40208;39.778;2.710;2024-03-06T10:28:10;14.02;;;4.80;;
54307;SDS011;40208;39.778;2.710;2024-03-06T10:31:02;15.25;;;3.60;;
54307;SDS011;40208;39.778;2.710;2024-03-06T10:33:50;10.38;;;2.97;;
54307;SDS011;40208;39.778;2.710;2024-03-06T10:36:35;12.15;;;3.58;;
54307;SDS011;40208;39.778;2.710;2024-03-06T10:39:22;10.25;;;4.22;;
54307;SDS011;40208;39.778;2.710;2024-03-06T10:42:07;9.20;;;3.10;;
54307;SDS011;40208;39.778;2.710;2024-03-06T10:44:52;8.73;;;2.85;;
54307;SDS011;40208;39.778;2.710;2024-03-06T10:50:31;10.02;;;3.15;;
54307;SDS011;40208;39.778;2.710;2024-03-06T10:53:16;10.38;;;3.63;;
54307;SDS011;40208;39.778;2.710;2024-03-06T10:56:02;8.70;;;3.08;;
54307;SDS011;40208;39.778;2.710;2024-03-06T10:58:51;17.58;;;5.07;;
54307;SDS011;40208;39.778;2.710;2024-03-06T11:01:40;9.90;;;3.37;;
54307;SDS011;40208;39.778;2.710;2024-03-06T11:04:28;11.05;;;3.92;;
54307;SDS011;40208;39.778;2.710;2024-03-06T11:07:19;20.88;;;9.55;;
54307;SDS011;40208;39.778;2.710;2024-03-06T11:10:04;16.80;;;8.27;;
54307;SDS011;40208;39.778;2.710;2024-03-06T11:12:49;14.95;;;6.13;;
54307;SDS011;40208;39.778;2.710;2024-03-06T11:15:34;33.60;;;12.80;;
54307;SDS011;40208;39.778;2.710;2024-03-06T11:27:07;18.08;;;6.22;;
54307;SDS011;40208;39.778;2.710;2024-03-06T11:30:05;15.38;;;5.63;;
54307;SDS011;40208;39.778;2.710;2024-03-06T11:32:58;15.68;;;6.60;;
54307;SDS011;40208;39.778;2.710;2024-03-06T11:39:05;11.32;;;4.55;;
54307;SDS011;40208;39.778;2.710;2024-03-06T11:41:51;15.52;;;5.63;;
54307;SDS011;40208;39.778;2.710;2024-03-06T11:44:36;14.38;;;5.57;;
54307;SDS011;40208;39.778;2.710;2024-03-06T11:47:21;15.25;;;5.20;;
54307;SDS011;40208;39.778;2.710;2024-03-06T11:50:06;15.00;;;5.47;;
54307;SDS011;40208;39.778;2.710;2024-03-06T11:52:53;13.02;;;4.80;;
54307;SDS011;40208;39.778;2.710;2024-03-06T11:55:39;17.58;;;6.28;;
54307;SDS011;40208;39.778;2.710;2024-03-06T11:58:24;16.38;;;6.18;;
54307;SDS011;40208;39.778;2.710;2024-03-06T12:01:09;16.85;;;5.53;;
54307;SDS011;40208;39.778;2.710;2024-03-06T12:03:54;18.95;;;5.63;;
54307;SDS011;40208;39.778;2.710;2024-03-06T12:06:39;16.60;;;6.50;;
54307;SDS011;40208;39.778;2.710;2024-03-06T12:09:24;21.02;;;6.70;;
54307;SDS011;40208;39.778;2.710;2024-03-06T12:12:09;16.33;;;5.40;;
54307;SDS011;40208;39.778;2.710;2024-03-06T12:14:57;16.27;;;6.63;;
54307;SDS011;40208;39.778;2.710;2024-03-06T12:17:48;15.63;;;5.43;;
54307;SDS011;40208;39.778;2.710;2024-03-06T12:20:34;15.32;;;5.85;;
54307;SDS011;40208;39.778;2.710;2024-03-06T12:23:20;14.10;;;5.10;;
54307;SDS011;40208;39.778;2.710;2024-03-06T12:29:07;16.40;;;4.47;;
54307;SDS011;40208;39.778;2.710;2024-03-06T12:31:52;16.10;;;5.20;;
54307;SDS011;40208;39.778;2.710;2024-03-06T12:34:37;13.65;;;4.38;;
54307;SDS011;40208;39.778;2.710;2024-03-06T12:37:28;13.45;;;3.58;;
54307;SDS011;40208;39.778;2.710;2024-03-06T12:40:16;11.57;;;3.83;;
54307;SDS011;40208;39.778;2.710;2024-03-06T12:43:01;23.30;;;9.35;;
54307;SDS011;40208;39.778;2.710;2024-03-06T12:45:47;37.15;;;18.20;;
54307;SDS011;40208;39.778;2.710;2024-03-06T12:48:32;57.15;;;24.58;;
54307;SDS011;40208;39.778;2.710;2024-03-06T12:51:17;41.55;;;18.90;;
54307;SDS011;40208;39.778;2.710;2024-03-06T12:54:02;37.33;;;17.23;;
54307;SDS011;40208;39.778;2.710;2024-03-06T12:56:48;46.55;;;21.17;;
54307;SDS011;40208;39.778;2.710;2024-03-06T12:59:32;39.97;;;16.48;;
54307;SDS011;40208;39.778;2.710;2024-03-06T13:02:18;32.45;;;13.93;;
54307;SDS011;40208;39.778;2.710;2024-03-06T13:05:02;30.40;;;9.57;;
54307;SDS011;40208;39.778;2.710;2024-03-06T13:07:48;22.30;;;7.43;;
54307;SDS011;40208;39.778;2.710;2024-03-06T13:10:33;22.92;;;7.85;;
54307;SDS011;40208;39.778;2.710;2024-03-06T13:13:18;17.17;;;6.70;;
54307;SDS011;40208;39.778;2.710;2024-03-06T13:16:03;18.00;;;5.53;;
54307;SDS011;40208;39.778;2.710;2024-03-06T13:18:47;11.48;;;5.18;;
54307;SDS011;40208;39.778;2.710;2024-03-06T13:21:34;10.65;;;4.03;;
54307;SDS011;40208;39.778;2.710;2024-03-06T13:24:19;9.70;;;3.40;;
54307;SDS011;40208;39.778;2.710;2024-03-06T13:27:04;10.70;;;3.15;;
54307;SDS011;40208;39.778;2.710;2024-03-06T13:29:49;15.52;;;4.53;;
54307;SDS011;40208;39.778;2.710;2024-03-06T13:32:35;13.70;;;3.90;;
54307;SDS011;40208;39.778;2.710;2024-03-06T13:35:20;15.63;;;4.28;;
54307;SDS011;40208;39.778;2.710;2024-03-06T13:38:04;15.68;;;4.63;;
54307;SDS011;40208;39.778;2.710;2024-03-06T13:40:49;12.43;;;4.97;;
54307;SDS011;40208;39.778;2.710;2024-03-06T13:43:34;17.63;;;5.28;;
54307;SDS011;40208;39.778;2.710;2024-03-06T13:46:19;17.17;;;5.38;;
54307;SDS011;40208;39.778;2.710;2024-03-06T13:49:03;16.17;;;5.45;;
54307;SDS011;40208;39.778;2.710;2024-03-06T13:51:48;15.00;;;5.82;;
54307;SDS011;40208;39.778;2.710;2024-03-06T13:54:34;20.13;;;5.88;;
54307;SDS011;40208;39.778;2.710;2024-03-06T13:57:19;17.85;;;7.53;;
54307;SDS011;40208;39.778;2.710;2024-03-06T14:00:05;18.77;;;5.75;;
54307;SDS011;40208;39.778;2.710;2024-03-06T14:02:51;26.17;;;5.97;;
54307;SDS011;40208;39.778;2.710;2024-03-06T14:05:36;16.08;;;5.03;;
54307;SDS011;40208;39.778;2.710;2024-03-06T14:08:22;15.55;;;4.50;;
54307;SDS011;40208;39.778;2.710;2024-03-06T14:11:07;14.60;;;4.45;;
54307;SDS011;40208;39.778;2.710;2024-03-06T14:13:51;9.15;;;3.40;;
54307;SDS011;40208;39.778;2.710;2024-03-06T14:16:37;8.05;;;3.58;;
54307;SDS011;40208;39.778;2.710;2024-03-06T14:19:24;15.48;;;3.25;;
54307;SDS011;40208;39.778;2.710;2024-03-06T14:22:09;12.80;;;2.85;;
54307;SDS011;40208;39.778;2.710;2024-03-06T14:24:53;18.13;;;4.18;;
54307;SDS011;40208;39.778;2.710;2024-03-06T14:27:39;14.88;;;3.97;;
54307;SDS011;40208;39.778;2.710;2024-03-06T14:30:24;15.27;;;4.05;;
54307;SDS011;40208;39.778;2.710;2024-03-06T14:33:08;13.52;;;4.55;;
54307;SDS011;40208;39.778;2.710;2024-03-06T14:35:54;17.55;;;4.65;;
54307;SDS011;40208;39.778;2.710;2024-03-06T14:38:39;11.77;;;3.88;;
54307;SDS011;40208;39.778;2.710;2024-03-06T14:41:24;15.50;;;4.78;;
54307;SDS011;40208;39.778;2.710;2024-03-06T14:44:09;12.07;;;3.92;;
54307;SDS011;40208;39.778;2.710;2024-03-06T14:46:54;15.63;;;4.93;;
54307;SDS011;40208;39.778;2.710;2024-03-06T14:49:42;14.27;;;4.32;;
54307;SDS011;40208;39.778;2.710;2024-03-06T14:52:29;12.07;;;4.07;;
54307;SDS011;40208;39.778;2.710;2024-03-06T14:55:14;9.35;;;3.95;;
54307;SDS011;40208;39.778;2.710;2024-03-06T14:57:58;10.20;;;4.05;;
54307;SDS011;40208;39.778;2.710;2024-03-06T15:00:43;11.32;;;4.30;;
54307;SDS011;40208;39.778;2.710;2024-03-06T15:03:28;10.23;;;4.13;;
54307;SDS011;40208;39.778;2.710;2024-03-06T15:06:13;10.73;;;3.90;;
54307;SDS011;40208;39.778;2.710;2024-03-06T15:08:57;9.13;;;3.10;;
54307;SDS011;40208;39.778;2.710;2024-03-06T15:11:42;13.73;;;4.03;;
54307;SDS011;40208;39.778;2.710;2024-03-06T15:14:27;13.50;;;3.78;;
54307;SDS011;40208;39.778;2.710;2024-03-06T15:17:12;9.55;;;3.55;;
54307;SDS011;40208;39.778;2.710;2024-03-06T15:19:57;10.77;;;3.55;;
54307;SDS011;40208;39.778;2.710;2024-03-06T15:22:43;10.27;;;3.53;;
54307;SDS011;40208;39.778;2.710;2024-03-06T15:25:28;10.35;;;3.40;;
54307;SDS011;40208;39.778;2.710;2024-03-06T15:28:13;8.70;;;3.78;;
54307;SDS011;40208;39.778;2.710;2024-03-06T15:30:57;9.18;;;3.45;;
54307;SDS011;40208;39.778;2.710;2024-03-06T15:33:42;7.03;;;3.03;;
54307;SDS011;40208;39.778;2.710;2024-03-06T15:36:27;8.68;;;2.97;;
54307;SDS011;40208;39.778;2.710;2024-03-06T15:39:12;8.18;;;3.00;;
54307;SDS011;40208;39.778;2.710;2024-03-06T15:41:57;7.18;;;2.25;;
54307;SDS011;40208;39.778;2.710;2024-03-06T15:44:42;9.48;;;2.80;;
54307;SDS011;40208;39.778;2.710;2024-03-06T15:47:27;7.10;;;2.90;;
54307;SDS011;40208;39.778;2.710;2024-03-06T15:50:12;7.95;;;2.83;;
54307;SDS011;40208;39.778;2.710;2024-03-06T15:52:57;6.93;;;2.60;;
54307;SDS011;40208;39.778;2.710;2024-03-06T15:55:43;8.88;;;2.28;;
54307;SDS011;40208;39.778;2.710;2024-03-06T15:58:28;11.57;;;2.83;;
54307;SDS011;40208;39.778;2.710;2024-03-06T16:01:13;6.53;;;2.17;;
54307;SDS011;40208;39.778;2.710;2024-03-06T16:03:58;10.15;;;2.70;;
54307;SDS011;40208;39.778;2.710;2024-03-06T16:06:43;6.68;;;1.80;;
54307;SDS011;40208;39.778;2.710;2024-03-06T16:09:28;10.73;;;2.30;;
54307;SDS011;40208;39.778;2.710;2024-03-06T16:12:13;9.73;;;2.40;;
54307;SDS011;40208;39.778;2.710;2024-03-06T16:14:58;7.07;;;2.40;;
54307;SDS011;40208;39.778;2.710;2024-03-06T16:17:44;8.30;;;2.38;;
54307;SDS011;40208;39.778;2.710;2024-03-06T16:20:30;6.65;;;1.80;;
54307;SDS011;40208;39.778;2.710;2024-03-06T16:23:14;11.90;;;2.47;;
54307;SDS011;40208;39.778;2.710;2024-03-06T16:25:59;5.50;;;1.80;;
54307;SDS011;40208;39.778;2.710;2024-03-06T16:28:45;4.20;;;1.65;;
54307;SDS011;40208;39.778;2.710;2024-03-06T16:31:30;7.70;;;2.05;;
54307;SDS011;40208;39.778;2.710;2024-03-06T16:34:15;7.88;;;2.05;;
54307;SDS011;40208;39.778;2.710;2024-03-06T16:37:02;7.88;;;1.98;;
54307;SDS011;40208;39.778;2.710;2024-03-06T16:39:48;6.35;;;1.67;;
54307;SDS011;40208;39.778;2.710;2024-03-06T16:42:34;6.20;;;1.75;;